sensor_id;sensor_type;location;lat;lon;timestamp;temperature;humidity
57566;DHT22;43401;43.788;-0.712;2022-08-03T00:01:16;25.00;99.90
57566;DHT22;43401;43.788;-0.712;2022-08-03T00:03:42;24.80;99.90
57566;DHT22;43401;43.788;-0.712;2022-08-03T00:06:08;24.90;99.90
57566;DHT22;43401;43.788;-0.712;2022-08-03T00:08:33;24.90;99.90
57566;DHT22;43401;43.788;-0.712;2022-08-03T00:10:59;24.70;99.90
57566;DHT22;43401;43.788;-0.712;2022-08-03T00:13:24;24.50;99.90
57566;DHT22;43401;43.788;-0.712;2022-08-03T00:15:50;25.00;99.90
57566;DHT22;43401;43.788;-0.712;2022-08-03T00:18:16;25.00;99.90
57566;DHT22;43401;43.788;-0.712;2022-08-03T00:20:41;25.00;99.90
57566;DHT22;43401;43.788;-0.712;2022-08-03T00:23:07;24.80;99.90
57566;DHT22;43401;43.788;-0.712;2022-08-03T00:25:33;25.00;99.90
57566;DHT22;43401;43.788;-0.712;2022-08-03T00:28:00;24.90;99.90
57566;DHT22;43401;43.788;-0.712;2022-08-03T00:30:26;24.60;99.90
57566;DHT22;43401;43.788;-0.712;2022-08-03T00:32:51;24.20;99.90
57566;DHT22;43401;43.788;-0.712;2022-08-03T00:35:17;24.10;99.90
57566;DHT22;43401;43.788;-0.712;2022-08-03T00:37:42;23.70;99.90
57566;DHT22;43401;43.788;-0.712;2022-08-03T00:40:09;24.00;99.90
57566;DHT22;43401;43.788;-0.712;2022-08-03T00:42:44;24.70;99.90
57566;DHT22;43401;43.788;-0.712;2022-08-03T00:45:10;24.70;99.90
57566;DHT22;43401;43.788;-0.712;2022-08-03T00:47:35;24.40;99.90
57566;DHT22;43401;43.788;-0.712;2022-08-03T00:50:01;24.20;99.90
57566;DHT22;43401;43.788;-0.712;2022-08-03T00:52:27;24.20;99.90
57566;DHT22;43401;43.788;-0.712;2022-08-03T00:54:52;24.10;99.90
57566;DHT22;43401;43.788;-0.712;2022-08-03T00:57:18;24.30;99.90
57566;DHT22;43401;43.788;-0.712;2022-08-03T00:59:44;24.40;99.90
57566;DHT22;43401;43.788;-0.712;2022-08-03T01:02:09;24.40;99.90
57566;DHT22;43401;43.788;-0.712;2022-08-03T01:04:35;24.30;99.90
57566;DHT22;43401;43.788;-0.712;2022-08-03T01:15:12;24.20;99.90
57566;DHT22;43401;43.788;-0.712;2022-08-03T01:17:46;24.00;99.90
57566;DHT22;43401;43.788;-0.712;2022-08-03T01:20:13;23.90;99.90
57566;DHT22;43401;43.788;-0.712;2022-08-03T01:25:30;24.00;99.90
57566;DHT22;43401;43.788;-0.712;2022-08-03T01:30:34;24.00;99.90
57566;DHT22;43401;43.788;-0.712;2022-08-03T01:33:03;24.00;99.90
57566;DHT22;43401;43.788;-0.712;2022-08-03T01:35:34;24.00;99.90
57566;DHT22;43401;43.788;-0.712;2022-08-03T01:38:04;23.90;99.90
57566;DHT22;43401;43.788;-0.712;2022-08-03T01:40:31;23.80;99.90
57566;DHT22;43401;43.788;-0.712;2022-08-03T01:42:58;23.90;99.90
57566;DHT22;43401;43.788;-0.712;2022-08-03T01:45:26;23.80;99.90
57566;DHT22;43401;43.788;-0.712;2022-08-03T01:47:52;23.70;99.90
57566;DHT22;43401;43.788;-0.712;2022-08-03T01:50:24;23.60;99.90
57566;DHT22;43401;43.788;-0.712;2022-08-03T01:52:50;23.60;99.90
57566;DHT22;43401;43.788;-0.712;2022-08-03T01:55:17;23.60;99.90
57566;DHT22;43401;43.788;-0.712;2022-08-03T01:57:43;23.50;99.90
57566;DHT22;43401;43.788;-0.712;2022-08-03T02:00:10;23.50;99.90
57566;DHT22;43401;43.788;-0.712;2022-08-03T02:02:36;23.30;99.90
57566;DHT22;43401;43.788;-0.712;2022-08-03T02:05:04;23.30;99.90
57566;DHT22;43401;43.788;-0.712;2022-08-03T02:07:30;23.30;99.90
57566;DHT22;43401;43.788;-0.712;2022-08-03T02:09:56;23.30;99.90
57566;DHT22;43401;43.788;-0.712;2022-08-03T02:12:23;23.40;99.90
57566;DHT22;43401;43.788;-0.712;2022-08-03T02:14:49;23.30;99.90
57566;DHT22;43401;43.788;-0.712;2022-08-03T02:17:15;23.20;99.90
57566;DHT22;43401;43.788;-0.712;2022-08-03T02:19:43;23.20;99.90
57566;DHT22;43401;43.788;-0.712;2022-08-03T02:22:10;23.20;99.90
57566;DHT22;43401;43.788;-0.712;2022-08-03T02:24:36;23.20;99.90
57566;DHT22;43401;43.788;-0.712;2022-08-03T02:27:02;23.10;99.90
57566;DHT22;43401;43.788;-0.712;2022-08-03T02:29:32;23.10;99.90
57566;DHT22;43401;43.788;-0.712;2022-08-03T02:31:59;23.10;99.90
57566;DHT22;43401;43.788;-0.712;2022-08-03T02:34:25;23.10;99.90
57566;DHT22;43401;43.788;-0.712;2022-08-03T02:36:52;23.00;99.90
57566;DHT22;43401;43.788;-0.712;2022-08-03T02:39:19;23.00;99.90
57566;DHT22;43401;43.788;-0.712;2022-08-03T02:41:50;23.00;99.90
57566;DHT22;43401;43.788;-0.712;2022-08-03T02:44:16;22.90;99.90
57566;DHT22;43401;43.788;-0.712;2022-08-03T02:46:44;22.80;99.90
57566;DHT22;43401;43.788;-0.712;2022-08-03T02:49:11;22.70;99.90
57566;DHT22;43401;43.788;-0.712;2022-08-03T02:51:37;22.70;99.90
57566;DHT22;43401;43.788;-0.712;2022-08-03T02:54:04;22.50;99.90
57566;DHT22;43401;43.788;-0.712;2022-08-03T02:56:30;22.60;99.90
57566;DHT22;43401;43.788;-0.712;2022-08-03T02:58:57;22.60;99.90
57566;DHT22;43401;43.788;-0.712;2022-08-03T03:01:23;22.60;99.90
57566;DHT22;43401;43.788;-0.712;2022-08-03T03:03:49;22.50;99.90
57566;DHT22;43401;43.788;-0.712;2022-08-03T03:06:16;22.50;99.90
57566;DHT22;43401;43.788;-0.712;2022-08-03T03:08:43;22.40;99.90
57566;DHT22;43401;43.788;-0.712;2022-08-03T03:11:09;22.30;99.90
57566;DHT22;43401;43.788;-0.712;2022-08-03T03:13:35;22.40;99.90
57566;DHT22;43401;43.788;-0.712;2022-08-03T03:16:02;22.40;99.90
57566;DHT22;43401;43.788;-0.712;2022-08-03T03:18:29;22.30;99.90
57566;DHT22;43401;43.788;-0.712;2022-08-03T03:20:55;22.50;99.90
57566;DHT22;43401;43.788;-0.712;2022-08-03T03:23:22;22.50;99.90
57566;DHT22;43401;43.788;-0.712;2022-08-03T03:25:49;22.60;99.90
57566;DHT22;43401;43.788;-0.712;2022-08-03T03:28:15;22.60;99.90
57566;DHT22;43401;43.788;-0.712;2022-08-03T03:30:41;22.50;99.90
57566;DHT22;43401;43.788;-0.712;2022-08-03T03:33:07;22.50;99.90
57566;DHT22;43401;43.788;-0.712;2022-08-03T03:35:32;22.50;99.90
57566;DHT22;43401;43.788;-0.712;2022-08-03T03:37:58;22.60;99.90
57566;DHT22;43401;43.788;-0.712;2022-08-03T03:40:24;22.80;99.90
57566;DHT22;43401;43.788;-0.712;2022-08-03T03:42:50;22.80;99.90
57566;DHT22;43401;43.788;-0.712;2022-08-03T03:45:16;22.80;99.90
57566;DHT22;43401;43.788;-0.712;2022-08-03T03:47:42;22.90;99.90
57566;DHT22;43401;43.788;-0.712;2022-08-03T03:50:07;23.00;99.90
57566;DHT22;43401;43.788;-0.712;2022-08-03T03:52:35;23.00;99.90
57566;DHT22;43401;43.788;-0.712;2022-08-03T03:55:00;23.00;99.90
57566;DHT22;43401;43.788;-0.712;2022-08-03T03:57:26;22.90;99.90
57566;DHT22;43401;43.788;-0.712;2022-08-03T03:59:52;23.10;99.90
57566;DHT22;43401;43.788;-0.712;2022-08-03T04:02:17;23.00;99.90
57566;DHT22;43401;43.788;-0.712;2022-08-03T04:04:43;23.00;99.90
57566;DHT22;43401;43.788;-0.712;2022-08-03T04:07:27;22.90;99.90
57566;DHT22;43401;43.788;-0.712;2022-08-03T04:10:16;22.90;99.90
57566;DHT22;43401;43.788;-0.712;2022-08-03T04:13:02;23.00;99.90
57566;DHT22;43401;43.788;-0.712;2022-08-03T04:15:29;23.00;99.90
57566;DHT22;43401;43.788;-0.712;2022-08-03T04:17:56;23.00;99.90
57566;DHT22;43401;43.788;-0.712;2022-08-03T04:20:25;23.00;99.90
57566;DHT22;43401;43.788;-0.712;2022-08-03T04:22:51;23.00;99.90
57566;DHT22;43401;43.788;-0.712;2022-08-03T04:25:18;23.00;99.90
57566;DHT22;43401;43.788;-0.712;2022-08-03T04:27:45;23.10;99.90
57566;DHT22;43401;43.788;-0.712;2022-08-03T04:30:12;23.10;99.90
57566;DHT22;43401;43.788;-0.712;2022-08-03T04:32:38;23.00;99.90
57566;DHT22;43401;43.788;-0.712;2022-08-03T04:35:04;23.00;99.90
57566;DHT22;43401;43.788;-0.712;2022-08-03T04:37:52;23.10;99.90
57566;DHT22;43401;43.788;-0.712;2022-08-03T04:40:20;23.30;99.90
57566;DHT22;43401;43.788;-0.712;2022-08-03T04:42:46;23.10;99.90
57566;DHT22;43401;43.788;-0.712;2022-08-03T04:45:13;23.30;99.90
57566;DHT22;43401;43.788;-0.712;2022-08-03T04:47:39;23.30;99.90
57566;DHT22;43401;43.788;-0.712;2022-08-03T04:50:05;23.30;99.90
57566;DHT22;43401;43.788;-0.712;2022-08-03T04:52:31;23.20;99.90
57566;DHT22;43401;43.788;-0.712;2022-08-03T04:54:58;23.30;99.90
57566;DHT22;43401;43.788;-0.712;2022-08-03T04:57:23;23.30;99.90
57566;DHT22;43401;43.788;-0.712;2022-08-03T04:59:50;23.30;99.90
57566;DHT22;43401;43.788;-0.712;2022-08-03T05:02:17;23.10;99.90
57566;DHT22;43401;43.788;-0.712;2022-08-03T05:04:42;23.10;99.90
57566;DHT22;43401;43.788;-0.712;2022-08-03T05:07:11;23.10;99.90
57566;DHT22;43401;43.788;-0.712;2022-08-03T05:09:36;23.20;99.90
57566;DHT22;43401;43.788;-0.712;2022-08-03T05:12:03;23.30;99.90
57566;DHT22;43401;43.788;-0.712;2022-08-03T05:14:28;23.30;99.90
57566;DHT22;43401;43.788;-0.712;2022-08-03T05:16:54;23.20;99.90
57566;DHT22;43401;43.788;-0.712;2022-08-03T05:19:20;23.40;99.90
57566;DHT22;43401;43.788;-0.712;2022-08-03T05:21:45;23.40;99.90
57566;DHT22;43401;43.788;-0.712;2022-08-03T05:24:11;23.40;99.90
57566;DHT22;43401;43.788;-0.712;2022-08-03T05:26:36;23.50;99.90
57566;DHT22;43401;43.788;-0.712;2022-08-03T05:29:02;23.30;99.90
57566;DHT22;43401;43.788;-0.712;2022-08-03T05:31:27;23.40;99.90
57566;DHT22;43401;43.788;-0.712;2022-08-03T05:33:53;23.10;99.90
57566;DHT22;43401;43.788;-0.712;2022-08-03T05:36:19;23.30;99.90
57566;DHT22;43401;43.788;-0.712;2022-08-03T05:38:44;23.40;99.90
57566;DHT22;43401;43.788;-0.712;2022-08-03T05:41:10;23.50;99.90
57566;DHT22;43401;43.788;-0.712;2022-08-03T05:43:35;23.50;99.90
57566;DHT22;43401;43.788;-0.712;2022-08-03T05:46:01;23.50;99.90
57566;DHT22;43401;43.788;-0.712;2022-08-03T05:48:26;23.50;99.90
57566;DHT22;43401;43.788;-0.712;2022-08-03T05:50:53;23.50;99.90
57566;DHT22;43401;43.788;-0.712;2022-08-03T05:53:18;23.80;99.90
57566;DHT22;43401;43.788;-0.712;2022-08-03T05:55:44;24.00;99.90
57566;DHT22;43401;43.788;-0.712;2022-08-03T05:58:09;24.00;99.90
57566;DHT22;43401;43.788;-0.712;2022-08-03T06:00:35;24.10;99.90
57566;DHT22;43401;43.788;-0.712;2022-08-03T06:03:00;24.10;99.90
57566;DHT22;43401;43.788;-0.712;2022-08-03T06:05:27;24.10;99.90
57566;DHT22;43401;43.788;-0.712;2022-08-03T06:07:52;24.20;99.90
57566;DHT22;43401;43.788;-0.712;2022-08-03T06:10:18;24.30;99.90
57566;DHT22;43401;43.788;-0.712;2022-08-03T06:12:44;24.20;99.90
57566;DHT22;43401;43.788;-0.712;2022-08-03T06:15:13;24.20;99.90
57566;DHT22;43401;43.788;-0.712;2022-08-03T06:17:46;24.20;99.90
57566;DHT22;43401;43.788;-0.712;2022-08-03T06:20:11;24.00;99.90
57566;DHT22;43401;43.788;-0.712;2022-08-03T06:22:37;24.00;99.90
57566;DHT22;43401;43.788;-0.712;2022-08-03T06:25:03;24.10;99.90
57566;DHT22;43401;43.788;-0.712;2022-08-03T06:27:28;24.30;99.90
57566;DHT22;43401;43.788;-0.712;2022-08-03T06:29:54;24.50;99.90
57566;DHT22;43401;43.788;-0.712;2022-08-03T06:32:19;24.40;99.90
57566;DHT22;43401;43.788;-0.712;2022-08-03T06:34:47;24.30;99.90
57566;DHT22;43401;43.788;-0.712;2022-08-03T06:37:13;24.40;99.90
57566;DHT22;43401;43.788;-0.712;2022-08-03T06:39:38;24.40;99.90
57566;DHT22;43401;43.788;-0.712;2022-08-03T06:42:04;24.50;99.90
57566;DHT22;43401;43.788;-0.712;2022-08-03T06:44:30;24.30;99.90
57566;DHT22;43401;43.788;-0.712;2022-08-03T06:46:55;24.40;99.90
57566;DHT22;43401;43.788;-0.712;2022-08-03T06:49:21;24.40;99.90
57566;DHT22;43401;43.788;-0.712;2022-08-03T06:51:47;24.30;99.90
57566;DHT22;43401;43.788;-0.712;2022-08-03T06:54:15;24.50;99.90
57566;DHT22;43401;43.788;-0.712;2022-08-03T06:56:40;24.70;99.90
57566;DHT22;43401;43.788;-0.712;2022-08-03T06:59:06;24.60;99.90
57566;DHT22;43401;43.788;-0.712;2022-08-03T07:01:31;24.60;99.90
57566;DHT22;43401;43.788;-0.712;2022-08-03T07:03:57;24.70;99.90
57566;DHT22;43401;43.788;-0.712;2022-08-03T07:06:23;24.60;99.90
57566;DHT22;43401;43.788;-0.712;2022-08-03T07:08:48;24.70;99.90
57566;DHT22;43401;43.788;-0.712;2022-08-03T07:11:14;24.80;99.90
57566;DHT22;43401;43.788;-0.712;2022-08-03T07:13:40;24.80;99.90
57566;DHT22;43401;43.788;-0.712;2022-08-03T07:16:05;24.80;99.90
57566;DHT22;43401;43.788;-0.712;2022-08-03T07:18:31;24.80;99.90
57566;DHT22;43401;43.788;-0.712;2022-08-03T07:20:57;24.80;99.90
57566;DHT22;43401;43.788;-0.712;2022-08-03T07:23:23;24.80;99.90
57566;DHT22;43401;43.788;-0.712;2022-08-03T07:25:49;24.80;99.90
57566;DHT22;43401;43.788;-0.712;2022-08-03T07:28:15;24.80;99.90
57566;DHT22;43401;43.788;-0.712;2022-08-03T07:30:40;24.80;99.90
57566;DHT22;43401;43.788;-0.712;2022-08-03T07:33:06;24.80;99.90
57566;DHT22;43401;43.788;-0.712;2022-08-03T07:35:31;25.00;99.90
57566;DHT22;43401;43.788;-0.712;2022-08-03T07:37:57;24.90;99.90
57566;DHT22;43401;43.788;-0.712;2022-08-03T07:40:22;25.00;99.90
57566;DHT22;43401;43.788;-0.712;2022-08-03T07:42:48;24.90;99.90
57566;DHT22;43401;43.788;-0.712;2022-08-03T07:45:14;25.00;99.90
57566;DHT22;43401;43.788;-0.712;2022-08-03T07:47:39;25.10;99.90
57566;DHT22;43401;43.788;-0.712;2022-08-03T07:50:05;25.10;99.90
57566;DHT22;43401;43.788;-0.712;2022-08-03T07:52:31;25.10;99.90
57566;DHT22;43401;43.788;-0.712;2022-08-03T07:55:16;25.10;99.90
57566;DHT22;43401;43.788;-0.712;2022-08-03T07:57:42;25.20;99.90
57566;DHT22;43401;43.788;-0.712;2022-08-03T08:00:15;25.30;99.90
57566;DHT22;43401;43.788;-0.712;2022-08-03T08:02:41;25.20;99.90
57566;DHT22;43401;43.788;-0.712;2022-08-03T08:05:07;25.40;99.90
57566;DHT22;43401;43.788;-0.712;2022-08-03T08:07:34;25.40;99.90
57566;DHT22;43401;43.788;-0.712;2022-08-03T08:10:00;25.40;99.90
57566;DHT22;43401;43.788;-0.712;2022-08-03T08:12:26;25.50;99.90
57566;DHT22;43401;43.788;-0.712;2022-08-03T08:14:51;25.50;99.90
57566;DHT22;43401;43.788;-0.712;2022-08-03T08:17:17;25.40;99.90
57566;DHT22;43401;43.788;-0.712;2022-08-03T08:19:44;25.70;99.90
57566;DHT22;43401;43.788;-0.712;2022-08-03T08:22:09;25.70;99.90
57566;DHT22;43401;43.788;-0.712;2022-08-03T08:24:35;25.80;99.90
57566;DHT22;43401;43.788;-0.712;2022-08-03T08:27:00;25.90;99.90
57566;DHT22;43401;43.788;-0.712;2022-08-03T08:29:26;26.10;99.90
57566;DHT22;43401;43.788;-0.712;2022-08-03T08:31:51;26.20;99.90
57566;DHT22;43401;43.788;-0.712;2022-08-03T08:34:17;26.10;99.90
57566;DHT22;43401;43.788;-0.712;2022-08-03T08:36:43;26.20;99.90
57566;DHT22;43401;43.788;-0.712;2022-08-03T08:39:08;26.30;99.90
57566;DHT22;43401;43.788;-0.712;2022-08-03T08:41:34;26.20;99.90
57566;DHT22;43401;43.788;-0.712;2022-08-03T08:44:00;26.30;99.90
57566;DHT22;43401;43.788;-0.712;2022-08-03T08:46:25;26.50;99.90
57566;DHT22;43401;43.788;-0.712;2022-08-03T08:48:52;26.60;99.90
57566;DHT22;43401;43.788;-0.712;2022-08-03T08:51:19;26.60;99.90
57566;DHT22;43401;43.788;-0.712;2022-08-03T08:53:46;26.80;99.90
57566;DHT22;43401;43.788;-0.712;2022-08-03T08:56:13;26.80;99.90
57566;DHT22;43401;43.788;-0.712;2022-08-03T08:58:49;27.00;99.90
57566;DHT22;43401;43.788;-0.712;2022-08-03T09:01:18;27.00;99.90
57566;DHT22;43401;43.788;-0.712;2022-08-03T09:03:44;27.00;99.90
57566;DHT22;43401;43.788;-0.712;2022-08-03T09:06:10;27.20;99.90
57566;DHT22;43401;43.788;-0.712;2022-08-03T09:08:36;27.20;99.90
57566;DHT22;43401;43.788;-0.712;2022-08-03T09:11:02;27.40;99.90
57566;DHT22;43401;43.788;-0.712;2022-08-03T09:13:27;27.40;99.90
57566;DHT22;43401;43.788;-0.712;2022-08-03T09:16:13;27.50;99.90
57566;DHT22;43401;43.788;-0.712;2022-08-03T09:18:40;27.40;99.90
57566;DHT22;43401;43.788;-0.712;2022-08-03T09:21:23;27.50;99.90
57566;DHT22;43401;43.788;-0.712;2022-08-03T09:23:49;27.50;99.90
57566;DHT22;43401;43.788;-0.712;2022-08-03T09:26:19;27.60;99.90
57566;DHT22;43401;43.788;-0.712;2022-08-03T09:28:45;27.60;99.90
57566;DHT22;43401;43.788;-0.712;2022-08-03T09:31:10;27.50;99.90
57566;DHT22;43401;43.788;-0.712;2022-08-03T09:33:46;27.40;99.90
57566;DHT22;43401;43.788;-0.712;2022-08-03T09:36:32;27.30;99.90
57566;DHT22;43401;43.788;-0.712;2022-08-03T09:39:01;27.40;99.90
57566;DHT22;43401;43.788;-0.712;2022-08-03T09:41:28;27.40;99.90
57566;DHT22;43401;43.788;-0.712;2022-08-03T09:43:53;27.50;99.90
57566;DHT22;43401;43.788;-0.712;2022-08-03T09:46:21;27.30;99.90
57566;DHT22;43401;43.788;-0.712;2022-08-03T09:48:46;27.40;99.90
57566;DHT22;43401;43.788;-0.712;2022-08-03T09:51:12;27.60;99.90
57566;DHT22;43401;43.788;-0.712;2022-08-03T09:53:43;27.60;99.90
57566;DHT22;43401;43.788;-0.712;2022-08-03T09:56:08;27.70;99.90
57566;DHT22;43401;43.788;-0.712;2022-08-03T09:58:38;27.90;99.90
57566;DHT22;43401;43.788;-0.712;2022-08-03T10:01:08;27.90;99.90
57566;DHT22;43401;43.788;-0.712;2022-08-03T10:03:35;28.00;99.90
57566;DHT22;43401;43.788;-0.712;2022-08-03T10:06:17;27.90;99.90
57566;DHT22;43401;43.788;-0.712;2022-08-03T10:08:44;27.90;99.90
57566;DHT22;43401;43.788;-0.712;2022-08-03T10:11:09;28.10;99.90
57566;DHT22;43401;43.788;-0.712;2022-08-03T10:13:35;28.30;99.90
57566;DHT22;43401;43.788;-0.712;2022-08-03T10:16:02;28.50;99.90
57566;DHT22;43401;43.788;-0.712;2022-08-03T10:18:29;28.40;99.90
57566;DHT22;43401;43.788;-0.712;2022-08-03T10:20:57;28.60;99.90
57566;DHT22;43401;43.788;-0.712;2022-08-03T10:23:25;28.60;99.90
57566;DHT22;43401;43.788;-0.712;2022-08-03T10:25:52;28.70;99.90
57566;DHT22;43401;43.788;-0.712;2022-08-03T10:28:18;28.70;99.90
57566;DHT22;43401;43.788;-0.712;2022-08-03T10:30:49;28.70;99.90
57566;DHT22;43401;43.788;-0.712;2022-08-03T10:33:23;28.60;99.90
57566;DHT22;43401;43.788;-0.712;2022-08-03T10:35:53;28.80;99.90
57566;DHT22;43401;43.788;-0.712;2022-08-03T10:38:21;28.80;99.90
57566;DHT22;43401;43.788;-0.712;2022-08-03T10:40:49;28.80;99.90
57566;DHT22;43401;43.788;-0.712;2022-08-03T10:43:19;28.90;99.90
57566;DHT22;43401;43.788;-0.712;2022-08-03T10:45:47;29.00;99.90
57566;DHT22;43401;43.788;-0.712;2022-08-03T10:48:13;29.00;99.90
57566;DHT22;43401;43.788;-0.712;2022-08-03T10:50:39;28.90;99.90
57566;DHT22;43401;43.788;-0.712;2022-08-03T10:53:07;29.10;99.90
57566;DHT22;43401;43.788;-0.712;2022-08-03T10:55:37;29.30;99.90
57566;DHT22;43401;43.788;-0.712;2022-08-03T11:01:07;29.00;99.90
57566;DHT22;43401;43.788;-0.712;2022-08-03T11:03:33;29.00;99.90
57566;DHT22;43401;43.788;-0.712;2022-08-03T11:06:21;29.10;99.90
57566;DHT22;43401;43.788;-0.712;2022-08-03T11:08:49;29.40;99.90
57566;DHT22;43401;43.788;-0.712;2022-08-03T11:13:56;29.40;99.90
57566;DHT22;43401;43.788;-0.712;2022-08-03T11:16:22;29.40;99.90
57566;DHT22;43401;43.788;-0.712;2022-08-03T11:18:56;29.20;99.90
57566;DHT22;43401;43.788;-0.712;2022-08-03T11:21:44;29.40;99.90
57566;DHT22;43401;43.788;-0.712;2022-08-03T11:24:07;29.70;99.90
57566;DHT22;43401;43.788;-0.712;2022-08-03T11:26:33;29.90;99.90
57566;DHT22;43401;43.788;-0.712;2022-08-03T11:31:43;29.60;99.90
57566;DHT22;43401;43.788;-0.712;2022-08-03T11:34:10;30.00;99.90
57566;DHT22;43401;43.788;-0.712;2022-08-03T11:39:20;30.00;99.90
57566;DHT22;43401;43.788;-0.712;2022-08-03T11:41:46;30.30;99.90
57566;DHT22;43401;43.788;-0.712;2022-08-03T11:44:38;30.40;99.90
57566;DHT22;43401;43.788;-0.712;2022-08-03T11:46:57;30.70;99.90
57566;DHT22;43401;43.788;-0.712;2022-08-03T11:49:23;30.70;99.90
57566;DHT22;43401;43.788;-0.712;2022-08-03T11:51:52;30.80;99.90
57566;DHT22;43401;43.788;-0.712;2022-08-03T11:54:18;30.60;99.90
57566;DHT22;43401;43.788;-0.712;2022-08-03T11:56:44;30.90;99.90
57566;DHT22;43401;43.788;-0.712;2022-08-03T11:59:10;30.90;99.90
57566;DHT22;43401;43.788;-0.712;2022-08-03T12:01:36;30.90;99.90
57566;DHT22;43401;43.788;-0.712;2022-08-03T12:04:03;31.10;99.90
57566;DHT22;43401;43.788;-0.712;2022-08-03T12:06:29;31.30;99.90
57566;DHT22;43401;43.788;-0.712;2022-08-03T12:08:55;31.70;99.90
57566;DHT22;43401;43.788;-0.712;2022-08-03T12:11:20;31.60;99.90
57566;DHT22;43401;43.788;-0.712;2022-08-03T12:13:47;31.00;99.90
57566;DHT22;43401;43.788;-0.712;2022-08-03T12:16:20;31.20;99.90
57566;DHT22;43401;43.788;-0.712;2022-08-03T12:18:59;31.60;99.90
57566;DHT22;43401;43.788;-0.712;2022-08-03T12:21:25;31.70;99.90
57566;DHT22;43401;43.788;-0.712;2022-08-03T12:23:55;31.70;99.90
57566;DHT22;43401;43.788;-0.712;2022-08-03T12:26:21;31.80;99.90
57566;DHT22;43401;43.788;-0.712;2022-08-03T12:28:47;32.00;99.90
57566;DHT22;43401;43.788;-0.712;2022-08-03T12:31:13;32.40;98.80
57566;DHT22;43401;43.788;-0.712;2022-08-03T12:36:23;31.90;99.80
57566;DHT22;43401;43.788;-0.712;2022-08-03T12:38:55;31.70;99.90
57566;DHT22;43401;43.788;-0.712;2022-08-03T12:44:17;32.10;98.80
57566;DHT22;43401;43.788;-0.712;2022-08-03T12:46:42;32.50;98.80
57566;DHT22;43401;43.788;-0.712;2022-08-03T12:49:09;32.00;99.40
57566;DHT22;43401;43.788;-0.712;2022-08-03T12:54:09;32.70;96.20
57566;DHT22;43401;43.788;-0.712;2022-08-03T12:56:34;32.50;96.80
57566;DHT22;43401;43.788;-0.712;2022-08-03T12:59:23;32.80;95.80
57566;DHT22;43401;43.788;-0.712;2022-08-03T13:01:50;32.10;96.60
57566;DHT22;43401;43.788;-0.712;2022-08-03T13:04:24;32.30;97.20
57566;DHT22;43401;43.788;-0.712;2022-08-03T13:07:00;32.40;97.90
57566;DHT22;43401;43.788;-0.712;2022-08-03T13:09:26;32.60;97.30
57566;DHT22;43401;43.788;-0.712;2022-08-03T13:12:05;32.40;97.40
57566;DHT22;43401;43.788;-0.712;2022-08-03T13:14:31;32.60;97.40
57566;DHT22;43401;43.788;-0.712;2022-08-03T13:16:57;32.90;95.30
57566;DHT22;43401;43.788;-0.712;2022-08-03T13:19:22;33.40;94.90
57566;DHT22;43401;43.788;-0.712;2022-08-03T13:21:48;33.40;95.00
57566;DHT22;43401;43.788;-0.712;2022-08-03T13:24:14;33.00;96.60
57566;DHT22;43401;43.788;-0.712;2022-08-03T13:26:40;32.70;94.50
57566;DHT22;43401;43.788;-0.712;2022-08-03T13:29:05;33.20;94.70
57566;DHT22;43401;43.788;-0.712;2022-08-03T13:31:31;33.30;94.90
57566;DHT22;43401;43.788;-0.712;2022-08-03T13:33:56;34.10;93.30
57566;DHT22;43401;43.788;-0.712;2022-08-03T13:36:22;34.00;92.40
57566;DHT22;43401;43.788;-0.712;2022-08-03T13:38:49;34.00;91.70
57566;DHT22;43401;43.788;-0.712;2022-08-03T13:41:14;34.40;85.70
57566;DHT22;43401;43.788;-0.712;2022-08-03T13:43:40;34.80;86.80
57566;DHT22;43401;43.788;-0.712;2022-08-03T13:46:05;34.70;88.30
57566;DHT22;43401;43.788;-0.712;2022-08-03T13:48:31;34.60;86.10
57566;DHT22;43401;43.788;-0.712;2022-08-03T13:50:57;33.80;90.00
57566;DHT22;43401;43.788;-0.712;2022-08-03T13:53:22;33.70;90.30
57566;DHT22;43401;43.788;-0.712;2022-08-03T13:55:48;34.30;88.40
57566;DHT22;43401;43.788;-0.712;2022-08-03T13:58:13;33.80;91.00
57566;DHT22;43401;43.788;-0.712;2022-08-03T14:00:39;33.20;92.10
57566;DHT22;43401;43.788;-0.712;2022-08-03T14:03:05;33.70;91.20
57566;DHT22;43401;43.788;-0.712;2022-08-03T14:05:31;33.90;86.40
57566;DHT22;43401;43.788;-0.712;2022-08-03T14:07:57;34.60;84.60
57566;DHT22;43401;43.788;-0.712;2022-08-03T14:10:22;34.60;84.90
57566;DHT22;43401;43.788;-0.712;2022-08-03T14:12:48;34.10;90.10
57566;DHT22;43401;43.788;-0.712;2022-08-03T14:15:13;34.30;86.10
57566;DHT22;43401;43.788;-0.712;2022-08-03T14:17:39;35.20;86.20
57566;DHT22;43401;43.788;-0.712;2022-08-03T14:20:06;34.80;85.40
57566;DHT22;43401;43.788;-0.712;2022-08-03T14:22:31;34.90;88.00
57566;DHT22;43401;43.788;-0.712;2022-08-03T14:24:57;35.10;83.40
57566;DHT22;43401;43.788;-0.712;2022-08-03T14:27:23;35.20;82.40
57566;DHT22;43401;43.788;-0.712;2022-08-03T14:29:48;34.70;85.80
57566;DHT22;43401;43.788;-0.712;2022-08-03T14:32:14;35.10;84.80
57566;DHT22;43401;43.788;-0.712;2022-08-03T14:34:40;35.20;84.00
57566;DHT22;43401;43.788;-0.712;2022-08-03T14:37:05;35.30;84.90
57566;DHT22;43401;43.788;-0.712;2022-08-03T14:39:31;34.90;87.20
57566;DHT22;43401;43.788;-0.712;2022-08-03T14:41:56;35.00;84.20
57566;DHT22;43401;43.788;-0.712;2022-08-03T14:44:22;35.10;82.90
57566;DHT22;43401;43.788;-0.712;2022-08-03T14:46:47;35.30;83.60
57566;DHT22;43401;43.788;-0.712;2022-08-03T14:49:13;35.30;84.10
57566;DHT22;43401;43.788;-0.712;2022-08-03T14:51:39;34.60;88.60
57566;DHT22;43401;43.788;-0.712;2022-08-03T14:54:04;34.70;85.90
57566;DHT22;43401;43.788;-0.712;2022-08-03T14:56:30;35.40;84.90
57566;DHT22;43401;43.788;-0.712;2022-08-03T14:58:55;35.50;85.30
57566;DHT22;43401;43.788;-0.712;2022-08-03T15:01:21;35.30;84.40
57566;DHT22;43401;43.788;-0.712;2022-08-03T15:03:47;34.90;88.20
57566;DHT22;43401;43.788;-0.712;2022-08-03T15:06:12;34.70;87.00
57566;DHT22;43401;43.788;-0.712;2022-08-03T15:08:38;34.80;85.80
57566;DHT22;43401;43.788;-0.712;2022-08-03T15:11:03;33.90;90.40
57566;DHT22;43401;43.788;-0.712;2022-08-03T15:13:29;33.80;90.50
57566;DHT22;43401;43.788;-0.712;2022-08-03T15:15:55;33.80;86.40
57566;DHT22;43401;43.788;-0.712;2022-08-03T15:18:22;34.00;86.60
57566;DHT22;43401;43.788;-0.712;2022-08-03T15:20:47;33.60;89.60
57566;DHT22;43401;43.788;-0.712;2022-08-03T15:23:15;33.20;91.70
57566;DHT22;43401;43.788;-0.712;2022-08-03T15:25:41;33.00;90.70
57566;DHT22;43401;43.788;-0.712;2022-08-03T15:28:07;33.10;91.70
57566;DHT22;43401;43.788;-0.712;2022-08-03T15:30:32;33.50;89.00
57566;DHT22;43401;43.788;-0.712;2022-08-03T15:33:01;34.20;86.00
57566;DHT22;43401;43.788;-0.712;2022-08-03T15:35:26;34.30;87.00
57566;DHT22;43401;43.788;-0.712;2022-08-03T15:37:53;34.40;84.80
57566;DHT22;43401;43.788;-0.712;2022-08-03T15:40:18;34.30;85.10
57566;DHT22;43401;43.788;-0.712;2022-08-03T15:42:44;33.60;90.40
57566;DHT22;43401;43.788;-0.712;2022-08-03T15:45:10;33.20;91.10
57566;DHT22;43401;43.788;-0.712;2022-08-03T15:47:35;33.50;87.50